createdAt,value
2017-06-25T00:00:50.704Z,0
2017-06-25T00:02:21.700Z,0
2017-06-25T00:03:23.837Z,0
2017-06-25T00:04:25.642Z,0
2017-06-25T00:05:27.093Z,0
2017-06-25T00:06:28.916Z,0
2017-06-25T00:07:30.721Z,0
2017-06-25T00:08:32.188Z,0
2017-06-25T00:09:33.989Z,0
2017-06-25T00:10:35.770Z,0
2017-06-25T00:11:37.220Z,0
2017-06-25T00:12:39.356Z,0
2017-06-25T00:13:41.159Z,0
2017-06-25T00:14:43.299Z,0
2017-06-25T00:15:45.438Z,0
2017-06-25T00:16:47.576Z,0
2017-06-25T00:17:49.713Z,0
2017-06-25T00:18:51.504Z,0
2017-06-25T00:19:52.954Z,0
2017-06-25T00:20:54.762Z,0
2017-06-25T00:21:56.918Z,0
2017-06-25T00:22:58.700Z,0
2017-06-25T00:24:00.858Z,0
2017-06-25T00:25:02.307Z,0
2017-06-25T00:26:04.113Z,0
2017-06-25T00:27:06.250Z,0
2017-06-25T00:28:07.718Z,0
2017-06-25T00:29:09.165Z,0
2017-06-25T00:30:10.971Z,0
2017-06-25T00:31:12.753Z,0
2017-06-25T00:32:14.556Z,0
2017-06-25T00:33:16.337Z,0
2017-06-25T00:34:17.808Z,0
2017-06-25T00:35:19.944Z,0
2017-06-25T00:36:21.467Z,0
2017-06-25T00:37:23.251Z,0
2017-06-25T00:38:24.701Z,0
2017-06-25T00:39:26.838Z,0
2017-06-25T00:40:28.989Z,0
2017-06-25T00:41:30.792Z,0
2017-06-25T00:42:32.584Z,0
2017-06-25T00:43:34.387Z,0
2017-06-25T00:44:36.542Z,0
2017-06-25T00:45:37.994Z,0
2017-06-25T00:46:40.128Z,0
2017-06-25T00:47:41.918Z,0
2017-06-25T00:48:43.721Z,0
2017-06-25T00:49:45.860Z,0
2017-06-25T00:50:47.997Z,0
2017-06-25T00:51:50.146Z,0
2017-06-25T00:52:51.948Z,0
2017-06-25T00:53:53.748Z,0
2017-06-25T00:54:55.888Z,0
2017-06-25T00:55:57.692Z,0
2017-06-25T00:56:59.832Z,0
2017-06-25T00:58:01.613Z,0
2017-06-25T00:59:03.393Z,0
2017-06-25T01:00:05.532Z,0
2017-06-25T01:01:07.318Z,0
2017-06-25T01:02:09.457Z,0
2017-06-25T01:03:11.240Z,0
2017-06-25T01:04:13.028Z,0
2017-06-25T01:05:14.834Z,0
2017-06-25T01:06:16.972Z,0
2017-06-25T01:07:19.110Z,0
2017-06-25T01:08:21.247Z,0
2017-06-25T01:09:23.383Z,0
2017-06-25T01:10:25.211Z,0
2017-06-25T01:11:27.019Z,0
2017-06-25T01:12:28.801Z,0
2017-06-25T01:13:30.937Z,0
2017-06-25T01:14:32.740Z,0
2017-06-25T01:15:34.546Z,0
2017-06-25T01:16:36.683Z,0
2017-06-25T01:17:38.465Z,0
2017-06-25T01:18:40.604Z,0
2017-06-25T01:19:42.740Z,0
2017-06-25T01:20:44.883Z,0
2017-06-25T01:21:46.351Z,0
2017-06-25T01:22:48.512Z,0
2017-06-25T01:23:50.294Z,0
2017-06-25T01:24:52.102Z,0
2017-06-25T01:25:53.914Z,0
2017-06-25T01:26:55.384Z,0
2017-06-25T01:27:57.191Z,0
2017-06-25T01:28:59.013Z,0
2017-06-25T01:30:00.825Z,0
2017-06-25T01:31:02.965Z,0
2017-06-25T01:32:04.773Z,0
2017-06-25T01:33:06.581Z,0
2017-06-25T01:34:08.385Z,0
2017-06-25T01:35:10.521Z,0
2017-06-25T01:36:12.326Z,0
2017-06-25T01:37:14.465Z,0
2017-06-25T01:38:16.278Z,0
2017-06-25T01:39:18.413Z,0
2017-06-25T01:40:20.554Z,0
2017-06-25T01:41:22.359Z,0
2017-06-25T01:42:24.499Z,0
2017-06-25T01:43:26.302Z,0
2017-06-25T01:44:27.431Z,0
2017-06-25T01:45:29.248Z,0
2017-06-25T01:46:31.384Z,0
2017-06-25T01:47:33.166Z,0
2017-06-25T01:48:34.618Z,0
2017-06-25T01:49:36.400Z,0
2017-06-25T01:50:37.871Z,0
2017-06-25T01:51:40.021Z,0
2017-06-25T01:52:41.489Z,0
2017-06-25T01:53:43.317Z,0
2017-06-25T01:54:45.098Z,0
2017-06-25T01:55:46.545Z,0
2017-06-25T01:56:48.016Z,0
2017-06-25T01:57:49.823Z,0
2017-06-25T01:58:51.957Z,0
2017-06-25T01:59:53.765Z,0
2017-06-25T02:00:55.553Z,0
2017-06-25T02:01:57.690Z,0
2017-06-25T02:02:59.498Z,0
2017-06-25T02:04:01.331Z,0
2017-06-25T02:05:03.465Z,0
2017-06-25T02:06:05.628Z,0
2017-06-25T02:07:07.767Z,0
2017-06-25T02:08:09.572Z,0
2017-06-25T02:09:11.376Z,0
2017-06-25T02:10:13.532Z,0
2017-06-25T02:11:15.334Z,0
2017-06-25T02:12:16.807Z,0
2017-06-25T02:13:18.944Z,0
2017-06-25T02:14:20.746Z,0
2017-06-25T02:15:22.885Z,0
2017-06-25T02:16:24.688Z,0
2017-06-25T02:17:26.471Z,0
2017-06-25T02:18:27.920Z,0
2017-06-25T02:19:29.704Z,0
2017-06-25T02:20:31.511Z,0
2017-06-25T02:21:33.650Z,0
2017-06-25T02:22:35.432Z,0
2017-06-25T02:23:37.214Z,0
2017-06-25T02:24:38.329Z,0
2017-06-25T02:25:40.625Z,0
2017-06-25T02:26:42.469Z,0
2017-06-25T02:27:44.272Z,0
2017-06-25T02:28:46.054Z,0
2017-06-25T02:29:47.836Z,0
2017-06-25T02:30:49.639Z,0
2017-06-25T02:31:51.440Z,0
2017-06-25T02:32:53.591Z,0
2017-06-25T02:33:55.397Z,0
2017-06-25T02:34:56.848Z,0
2017-06-25T02:35:59.027Z,0
2017-06-25T02:37:00.814Z,0
2017-06-25T02:38:02.948Z,0
2017-06-25T02:39:04.754Z,0
2017-06-25T02:40:06.890Z,0
2017-06-25T02:41:09.027Z,0
2017-06-25T02:42:10.831Z,0
2017-06-25T02:43:12.635Z,0
2017-06-25T02:44:14.773Z,0
2017-06-25T02:45:16.246Z,0
2017-06-25T02:46:18.029Z,0
2017-06-25T02:47:20.167Z,0
2017-06-25T02:48:21.968Z,0
2017-06-25T02:49:23.418Z,0
2017-06-25T02:50:25.205Z,0
2017-06-25T02:51:26.988Z,0
2017-06-25T02:52:28.768Z,0
2017-06-25T02:53:30.576Z,0
2017-06-25T02:54:32.028Z,0
2017-06-25T02:55:33.834Z,0
2017-06-25T02:56:35.973Z,0
2017-06-25T02:57:37.095Z,0
2017-06-25T02:58:39.231Z,0
2017-06-25T02:59:40.704Z,0
2017-06-25T03:00:42.489Z,0
2017-06-25T03:01:43.939Z,0
2017-06-25T03:02:45.747Z,0
2017-06-25T03:03:47.220Z,0
2017-06-25T03:04:48.693Z,0
2017-06-25T03:05:50.497Z,0
2017-06-25T03:06:52.640Z,0
2017-06-25T03:07:54.090Z,0
2017-06-25T03:08:55.871Z,0
2017-06-25T03:09:57.677Z,0
2017-06-25T03:10:59.459Z,0
2017-06-25T03:12:01.241Z,0
2017-06-25T03:13:03.049Z,0
2017-06-25T03:14:04.853Z,0
2017-06-25T03:15:06.993Z,0
2017-06-25T03:16:09.129Z,0
2017-06-25T03:17:10.937Z,0
2017-06-25T03:18:13.072Z,0
2017-06-25T03:19:14.873Z,0
2017-06-25T03:20:17.011Z,0
2017-06-25T03:21:18.820Z,0
2017-06-25T03:22:20.610Z,0
2017-06-25T03:23:22.743Z,0
2017-06-25T03:24:24.193Z,0
2017-06-25T03:25:26.002Z,0
2017-06-25T03:26:27.453Z,0
2017-06-25T03:27:28.929Z,0
2017-06-25T03:28:31.063Z,0
2017-06-25T03:29:32.869Z,0
2017-06-25T03:30:35.004Z,0
2017-06-25T03:31:37.142Z,0
2017-06-25T03:32:38.592Z,0
2017-06-25T03:33:40.394Z,0
2017-06-25T03:34:42.202Z,0
2017-06-25T03:35:43.672Z,0
2017-06-25T03:36:45.452Z,0
2017-06-25T03:37:47.263Z,0
2017-06-25T03:38:48.402Z,0
2017-06-25T03:39:49.872Z,0
2017-06-25T03:40:52.015Z,0
2017-06-25T03:41:53.465Z,0
2017-06-25T03:42:54.933Z,0
2017-06-25T03:43:56.404Z,0
2017-06-25T03:44:58.209Z,0
2017-06-25T03:46:00.016Z,0
2017-06-25T03:47:02.153Z,0
2017-06-25T03:48:04.289Z,0
2017-06-25T03:49:06.095Z,0
2017-06-25T03:50:07.880Z,0
2017-06-25T03:51:09.684Z,0
2017-06-25T03:52:11.131Z,0
2017-06-25T03:53:13.274Z,0
2017-06-25T03:54:15.461Z,0
2017-06-25T03:55:17.273Z,0
2017-06-25T03:56:19.404Z,0
2017-06-25T03:57:21.540Z,0
2017-06-25T03:58:23.678Z,0
2017-06-25T03:59:25.483Z,0
2017-06-25T04:00:27.286Z,0
2017-06-25T04:01:29.423Z,0
2017-06-25T04:02:30.892Z,0
2017-06-25T04:03:32.696Z,0
2017-06-25T04:04:34.173Z,0
2017-06-25T04:05:35.958Z,0
2017-06-25T04:06:37.766Z,0
2017-06-25T04:07:39.554Z,0
2017-06-25T04:08:41.359Z,0
2017-06-25T04:09:43.163Z,0
2017-06-25T04:10:44.277Z,0
2017-06-25T04:11:46.412Z,0
2017-06-25T04:12:47.863Z,0
2017-06-25T04:13:50.003Z,0
2017-06-25T04:14:52.141Z,0
2017-06-25T04:15:53.266Z,0
2017-06-25T04:16:55.047Z,0
2017-06-25T04:17:57.184Z,0
2017-06-25T04:18:59.321Z,0
2017-06-25T04:20:00.769Z,0
2017-06-25T04:21:02.550Z,0
2017-06-25T04:22:04.041Z,0
2017-06-25T04:23:05.822Z,0
2017-06-25T04:24:07.294Z,0
2017-06-25T04:25:09.103Z,0
2017-06-25T04:26:10.573Z,0
2017-06-25T04:27:12.709Z,5
2017-06-25T04:28:14.514Z,5
2017-06-25T04:29:15.966Z,5
2017-06-25T04:30:17.772Z,11
2017-06-25T04:31:19.921Z,0
2017-06-25T04:32:21.377Z,0
2017-06-25T04:33:23.161Z,0
2017-06-25T04:34:24.963Z,0
2017-06-25T04:35:26.771Z,0
2017-06-25T04:36:28.911Z,0
2017-06-25T04:37:30.697Z,0
2017-06-25T04:38:32.500Z,5
2017-06-25T04:39:33.959Z,5
2017-06-25T04:40:35.764Z,5
2017-06-25T04:41:37.238Z,5
2017-06-25T04:42:39.380Z,5
2017-06-25T04:43:41.520Z,5
2017-06-25T04:44:43.657Z,5
2017-06-25T04:45:45.108Z,5
2017-06-25T04:46:46.914Z,16
2017-06-25T04:47:48.699Z,11
2017-06-25T04:48:50.837Z,28
2017-06-25T04:49:52.656Z,39
2017-06-25T04:50:54.111Z,39
2017-06-25T04:51:55.916Z,39
2017-06-25T04:52:57.059Z,39
2017-06-25T04:53:59.198Z,39
2017-06-25T04:55:01.001Z,39
2017-06-25T04:56:02.470Z,39
2017-06-25T04:57:04.304Z,39
2017-06-25T04:58:06.101Z,39
2017-06-25T04:59:07.884Z,39
2017-06-25T05:00:10.025Z,39
2017-06-25T05:01:11.476Z,16
2017-06-25T05:02:13.637Z,11
2017-06-25T05:03:15.766Z,28
2017-06-25T05:04:17.909Z,22
2017-06-25T05:05:19.712Z,11
2017-06-25T05:06:21.529Z,11
2017-06-25T05:07:23.334Z,11
2017-06-25T05:08:25.473Z,11
2017-06-25T05:09:27.612Z,11
2017-06-25T05:10:29.753Z,11
2017-06-25T05:11:31.906Z,11
2017-06-25T05:12:34.043Z,11
2017-06-25T05:13:36.181Z,11
2017-06-25T05:14:37.984Z,5
2017-06-25T05:15:39.432Z,5
2017-06-25T05:16:41.326Z,5
2017-06-25T05:17:43.464Z,5
2017-06-25T05:18:45.265Z,5
2017-06-25T05:19:47.071Z,5
2017-06-25T05:20:48.521Z,5
2017-06-25T05:21:50.660Z,5
2017-06-25T05:22:51.774Z,5
2017-06-25T05:23:53.914Z,5
2017-06-25T05:24:56.051Z,5
2017-06-25T05:25:57.857Z,5
2017-06-25T05:26:59.658Z,5
2017-06-25T05:28:01.801Z,5
2017-06-25T05:29:03.941Z,5
2017-06-25T05:30:06.075Z,5
2017-06-25T05:31:08.216Z,5
2017-06-25T05:32:10.005Z,5
2017-06-25T05:33:12.144Z,5
2017-06-25T05:34:13.927Z,5
2017-06-25T05:35:15.732Z,5
2017-06-25T05:36:17.873Z,5
2017-06-25T05:37:19.680Z,5
2017-06-25T05:38:21.822Z,5
2017-06-25T05:39:23.316Z,5
2017-06-25T05:40:25.098Z,5
2017-06-25T05:41:26.883Z,5
2017-06-25T05:42:28.688Z,5
2017-06-25T05:43:30.840Z,11
2017-06-25T05:44:32.303Z,11
2017-06-25T05:45:34.090Z,11
2017-06-25T05:46:35.899Z,11
2017-06-25T05:47:37.705Z,11
2017-06-25T05:48:39.843Z,11
2017-06-25T05:49:41.984Z,11
2017-06-25T05:50:43.460Z,11
2017-06-25T05:51:45.603Z,11
2017-06-25T05:52:47.849Z,11
2017-06-25T05:53:49.656Z,11
2017-06-25T05:54:51.442Z,11
2017-06-25T05:55:53.583Z,11
2017-06-25T05:56:55.056Z,11
2017-06-25T05:57:57.197Z,11
2017-06-25T05:58:59.002Z,16
2017-06-25T06:00:00.806Z,33
2017-06-25T06:01:02.588Z,28
2017-06-25T06:02:04.728Z,11
2017-06-25T06:03:06.866Z,11
2017-06-25T06:04:08.317Z,5
2017-06-25T06:05:10.453Z,5
2017-06-25T06:06:12.259Z,5
2017-06-25T06:07:14.065Z,5
2017-06-25T06:08:15.581Z,5
2017-06-25T06:09:17.032Z,5
2017-06-25T06:10:18.842Z,5
2017-06-25T06:11:20.291Z,5
2017-06-25T06:12:22.078Z,5
2017-06-25T06:13:23.859Z,5
2017-06-25T06:14:25.997Z,11
2017-06-25T06:15:28.136Z,11
2017-06-25T06:16:30.275Z,11
2017-06-25T06:17:32.415Z,11
2017-06-25T06:18:33.889Z,11
2017-06-25T06:19:35.697Z,11
2017-06-25T06:20:37.838Z,11
2017-06-25T06:21:38.965Z,11
2017-06-25T06:22:40.087Z,11
2017-06-25T06:23:41.560Z,11
2017-06-25T06:24:43.701Z,11
2017-06-25T06:25:45.508Z,11
2017-06-25T06:26:46.961Z,11
2017-06-25T06:27:48.767Z,11
2017-06-25T06:28:50.578Z,11
2017-06-25T06:29:51.699Z,11
2017-06-25T06:30:53.511Z,11
2017-06-25T06:31:54.988Z,11
2017-06-25T06:32:57.130Z,11
2017-06-25T06:33:58.273Z,11
2017-06-25T06:35:00.412Z,11
2017-06-25T06:36:01.884Z,11
2017-06-25T06:37:03.340Z,11
2017-06-25T06:38:05.130Z,11
2017-06-25T06:39:06.302Z,11
2017-06-25T06:40:07.755Z,11
2017-06-25T06:41:09.539Z,11
2017-06-25T06:42:10.661Z,11
2017-06-25T06:43:12.804Z,11
2017-06-25T06:44:14.945Z,11
2017-06-25T06:45:16.412Z,11
2017-06-25T06:46:18.218Z,16
2017-06-25T06:47:19.358Z,16
2017-06-25T06:48:21.497Z,11
2017-06-25T06:49:23.303Z,11
2017-06-25T06:50:25.114Z,11
2017-06-25T06:51:26.568Z,11
2017-06-25T06:52:28.710Z,11
2017-06-25T06:53:30.514Z,11
2017-06-25T06:54:32.659Z,11
2017-06-25T06:55:34.802Z,11
2017-06-25T06:56:36.604Z,11
2017-06-25T06:57:38.064Z,11
2017-06-25T06:58:39.870Z,11
2017-06-25T06:59:41.346Z,11
2017-06-25T07:00:43.157Z,11
2017-06-25T07:01:44.968Z,11
2017-06-25T07:02:47.107Z,16
2017-06-25T07:03:48.892Z,16
2017-06-25T07:04:50.697Z,11
2017-06-25T07:05:52.833Z,11
2017-06-25T07:06:54.310Z,11
2017-06-25T07:07:56.116Z,11
2017-06-25T07:08:58.259Z,11
2017-06-25T07:10:00.500Z,11
2017-06-25T07:11:01.949Z,11
2017-06-25T07:12:04.089Z,11
2017-06-25T07:13:05.544Z,11
2017-06-25T07:14:07.351Z,11
2017-06-25T07:15:09.492Z,11
2017-06-25T07:16:10.943Z,11
2017-06-25T07:17:12.750Z,11
2017-06-25T07:18:14.224Z,11
2017-06-25T07:19:16.366Z,11
2017-06-25T07:20:18.149Z,11
2017-06-25T07:21:20.289Z,5
2017-06-25T07:22:22.098Z,5
2017-06-25T07:23:24.236Z,5
2017-06-25T07:24:25.687Z,5
2017-06-25T07:25:27.830Z,5
2017-06-25T07:26:29.634Z,5
2017-06-25T07:27:31.776Z,5
2017-06-25T07:28:33.249Z,5
2017-06-25T07:29:35.060Z,5
2017-06-25T07:30:36.532Z,5
2017-06-25T07:31:38.672Z,11
2017-06-25T07:32:40.483Z,11
2017-06-25T07:33:42.625Z,11
2017-06-25T07:34:44.767Z,11
2017-06-25T07:35:46.570Z,5
2017-06-25T07:36:48.046Z,5
2017-06-25T07:37:50.187Z,5
2017-06-25T07:38:52.327Z,5
2017-06-25T07:39:53.818Z,5
2017-06-25T07:40:55.320Z,5
2017-06-25T07:41:57.461Z,5
2017-06-25T07:42:59.600Z,5
2017-06-25T07:44:01.406Z,5
2017-06-25T07:45:02.880Z,5
2017-06-25T07:46:04.788Z,5
2017-06-25T07:47:06.245Z,5
2017-06-25T07:48:07.715Z,5
2017-06-25T07:49:09.164Z,11
2017-06-25T07:50:11.308Z,11
2017-06-25T07:51:13.114Z,5
2017-06-25T07:52:14.922Z,11
2017-06-25T07:53:17.060Z,11
2017-06-25T07:54:18.845Z,11
2017-06-25T07:55:20.628Z,11
2017-06-25T07:56:22.532Z,11
2017-06-25T07:57:24.340Z,11
2017-06-25T07:58:26.481Z,11
2017-06-25T07:59:28.619Z,11
2017-06-25T08:00:30.763Z,11
2017-06-25T08:01:32.234Z,11
2017-06-25T08:02:34.375Z,16
2017-06-25T08:03:36.186Z,16
2017-06-25T08:04:37.969Z,16
2017-06-25T08:05:39.442Z,16
2017-06-25T08:06:40.921Z,16
2017-06-25T08:07:43.063Z,16
2017-06-25T08:08:44.550Z,16
2017-06-25T08:09:46.683Z,16
2017-06-25T08:10:48.825Z,16
2017-06-25T08:11:50.712Z,16
2017-06-25T08:12:52.501Z,16
2017-06-25T08:13:53.289Z,16
2017-06-25T08:14:55.433Z,16
2017-06-25T08:15:56.556Z,16
2017-06-25T08:16:57.674Z,16
2017-06-25T08:17:59.481Z,16
2017-06-25T08:19:00.954Z,16
2017-06-25T08:20:02.764Z,16
2017-06-25T08:21:04.552Z,16
2017-06-25T08:22:06.791Z,16
2017-06-25T08:23:08.268Z,16
2017-06-25T08:24:10.073Z,16
2017-06-25T08:25:11.877Z,16
2017-06-25T08:26:14.016Z,22
2017-06-25T08:27:15.826Z,22
2017-06-25T08:28:17.964Z,22
2017-06-25T08:29:19.433Z,22
2017-06-25T08:30:21.577Z,22
2017-06-25T08:31:23.382Z,22
2017-06-25T08:32:25.193Z,22
2017-06-25T08:33:26.999Z,22
2017-06-25T08:34:28.809Z,22
2017-06-25T08:35:30.612Z,22
2017-06-25T08:36:32.420Z,22
2017-06-25T08:37:34.233Z,22
2017-06-25T08:38:35.390Z,22
2017-06-25T08:39:37.517Z,16
2017-06-25T08:40:39.658Z,16
2017-06-25T08:41:41.467Z,16
2017-06-25T08:42:42.583Z,16
2017-06-25T08:43:44.389Z,16
2017-06-25T08:44:46.198Z,22
2017-06-25T08:45:48.006Z,22
2017-06-25T08:46:49.790Z,22
2017-06-25T08:47:51.596Z,22
2017-06-25T08:48:53.400Z,22
2017-06-25T08:49:54.873Z,22
2017-06-25T08:50:57.017Z,22
2017-06-25T08:51:58.819Z,22
2017-06-25T08:53:00.958Z,16
2017-06-25T08:54:03.098Z,16
2017-06-25T08:55:05.240Z,16
2017-06-25T08:56:07.381Z,16
2017-06-25T08:57:09.189Z,22
2017-06-25T08:58:11.327Z,22
2017-06-25T08:59:13.463Z,22
2017-06-25T09:00:15.605Z,22
2017-06-25T09:01:17.055Z,22
2017-06-25T09:02:19.194Z,22
2017-06-25T09:03:20.657Z,22
2017-06-25T09:04:22.462Z,28
2017-06-25T09:05:24.607Z,28
2017-06-25T09:06:26.076Z,28
2017-06-25T09:07:27.864Z,28
2017-06-25T09:08:29.313Z,22
2017-06-25T09:09:31.097Z,22
2017-06-25T09:10:32.903Z,22
2017-06-25T09:11:34.691Z,22
2017-06-25T09:12:36.833Z,22
2017-06-25T09:13:38.301Z,22
2017-06-25T09:14:40.440Z,22
2017-06-25T09:15:41.895Z,22
2017-06-25T09:16:43.699Z,16
2017-06-25T09:17:45.510Z,16
2017-06-25T09:18:47.649Z,16
2017-06-25T09:19:49.788Z,11
2017-06-25T09:20:51.602Z,16
2017-06-25T09:21:52.724Z,16
2017-06-25T09:22:54.507Z,16
2017-06-25T09:23:55.962Z,16
2017-06-25T09:24:57.438Z,16
2017-06-25T09:25:59.243Z,11
2017-06-25T09:27:01.387Z,11
2017-06-25T09:28:03.527Z,11
2017-06-25T09:29:05.338Z,11
2017-06-25T09:30:07.149Z,11
2017-06-25T09:31:08.956Z,11
2017-06-25T09:32:10.767Z,11
2017-06-25T09:33:12.910Z,11
2017-06-25T09:34:15.050Z,11
2017-06-25T09:35:17.192Z,11
2017-06-25T09:36:18.645Z,11
2017-06-25T09:37:20.787Z,16
2017-06-25T09:38:22.597Z,11
2017-06-25T09:39:23.712Z,11
2017-06-25T09:40:25.852Z,11
2017-06-25T09:41:27.994Z,11
2017-06-25T09:42:30.130Z,11
2017-06-25T09:43:31.915Z,11
2017-06-25T09:44:34.062Z,11
2017-06-25T09:45:36.201Z,11
2017-06-25T09:46:37.676Z,11
2017-06-25T09:47:39.481Z,11
2017-06-25T09:48:40.935Z,11
2017-06-25T09:49:42.738Z,11
2017-06-25T09:50:44.542Z,11
2017-06-25T09:51:46.355Z,11
2017-06-25T09:52:48.143Z,11
2017-06-25T09:53:49.949Z,11
2017-06-25T09:54:52.092Z,11
2017-06-25T09:55:53.573Z,16
2017-06-25T09:56:55.709Z,16
2017-06-25T09:57:57.181Z,11
2017-06-25T09:58:58.634Z,11
2017-06-25T10:00:00.520Z,11
2017-06-25T10:01:02.328Z,11
2017-06-25T10:02:04.466Z,5
2017-06-25T10:03:06.605Z,5
2017-06-25T10:04:08.408Z,5
2017-06-25T10:05:10.215Z,5
2017-06-25T10:06:11.997Z,5
2017-06-25T10:07:13.471Z,5
2017-06-25T10:08:15.277Z,5
2017-06-25T10:09:16.730Z,5
2017-06-25T10:10:18.923Z,5
2017-06-25T10:11:21.062Z,5
2017-06-25T10:12:22.866Z,11
2017-06-25T10:13:23.987Z,16
2017-06-25T10:14:25.788Z,16
2017-06-25T10:15:27.249Z,16
2017-06-25T10:16:28.704Z,22
2017-06-25T10:17:30.509Z,22
2017-06-25T10:18:32.647Z,22
2017-06-25T10:19:34.122Z,16
2017-06-25T10:20:36.262Z,16
2017-06-25T10:21:37.736Z,22
2017-06-25T10:22:39.545Z,22
2017-06-25T10:23:41.350Z,22
2017-06-25T10:24:42.491Z,22
2017-06-25T10:25:43.962Z,22
2017-06-25T10:26:45.766Z,22
2017-06-25T10:27:47.571Z,22
2017-06-25T10:28:49.710Z,22
2017-06-25T10:29:51.852Z,22
2017-06-25T10:30:53.371Z,22
2017-06-25T10:31:54.824Z,22
2017-06-25T10:32:56.293Z,22
2017-06-25T10:33:58.080Z,28
2017-06-25T10:34:59.871Z,28
2017-06-25T10:36:01.775Z,28
2017-06-25T10:37:03.581Z,28
2017-06-25T10:38:05.386Z,28
2017-06-25T10:39:07.527Z,28
2017-06-25T10:40:09.665Z,28
2017-06-25T10:41:11.805Z,22
2017-06-25T10:42:13.952Z,22
2017-06-25T10:43:16.105Z,22
2017-06-25T10:44:18.247Z,22
2017-06-25T10:45:20.053Z,22
2017-06-25T10:46:21.859Z,22
2017-06-25T10:47:23.999Z,28
2017-06-25T10:48:25.147Z,28
2017-06-25T10:49:26.956Z,22
2017-06-25T10:50:29.093Z,28
2017-06-25T10:51:30.903Z,28
2017-06-25T10:52:33.046Z,28
2017-06-25T10:53:34.521Z,28
2017-06-25T10:54:36.335Z,28
2017-06-25T10:55:38.137Z,28
2017-06-25T10:56:39.961Z,22
2017-06-25T10:57:42.095Z,22
2017-06-25T10:58:44.238Z,16
2017-06-25T10:59:45.693Z,11
2017-06-25T11:00:47.168Z,11
2017-06-25T11:01:48.974Z,16
2017-06-25T11:02:50.781Z,16
2017-06-25T11:03:52.568Z,11
2017-06-25T11:04:53.715Z,11
2017-06-25T11:05:54.503Z,11
2017-06-25T11:06:55.952Z,11
2017-06-25T11:07:57.739Z,16
2017-06-25T11:08:59.547Z,16
2017-06-25T11:10:01.353Z,16
2017-06-25T11:11:03.494Z,22
2017-06-25T11:12:05.300Z,22
2017-06-25T11:13:07.110Z,22
2017-06-25T11:14:08.892Z,28
2017-06-25T11:15:10.676Z,28
2017-06-25T11:16:11.797Z,28
2017-06-25T11:17:13.277Z,28
2017-06-25T11:18:15.085Z,22
2017-06-25T11:19:16.558Z,22
2017-06-25T11:20:18.036Z,16
2017-06-25T11:21:19.840Z,22
2017-06-25T11:22:21.632Z,22
2017-06-25T11:23:23.770Z,16
2017-06-25T11:24:25.581Z,22
2017-06-25T11:25:27.363Z,22
2017-06-25T11:26:29.506Z,16
2017-06-25T11:27:31.314Z,16
2017-06-25T11:28:32.763Z,16
2017-06-25T11:29:34.572Z,22
2017-06-25T11:30:36.021Z,22
2017-06-25T11:31:37.832Z,22
2017-06-25T11:32:40.025Z,22
2017-06-25T11:33:41.471Z,22
2017-06-25T11:34:43.282Z,22
2017-06-25T11:35:45.084Z,22
2017-06-25T11:36:46.892Z,22
2017-06-25T11:37:49.033Z,28
2017-06-25T11:38:51.175Z,28
2017-06-25T11:39:53.317Z,22
2017-06-25T11:40:55.458Z,28
2017-06-25T11:41:57.245Z,28
2017-06-25T11:42:59.384Z,28
2017-06-25T11:44:01.191Z,28
2017-06-25T11:45:02.647Z,28
2017-06-25T11:46:04.435Z,28
2017-06-25T11:47:05.907Z,22
2017-06-25T11:48:07.814Z,22
2017-06-25T11:49:09.618Z,16
2017-06-25T11:50:11.423Z,16
2017-06-25T11:51:13.234Z,16
2017-06-25T11:52:15.374Z,16
2017-06-25T11:53:17.518Z,22
2017-06-25T11:54:18.988Z,22
2017-06-25T11:55:20.797Z,22
2017-06-25T11:56:22.950Z,22
2017-06-25T11:57:24.407Z,22
2017-06-25T11:58:25.523Z,28
2017-06-25T11:59:27.333Z,22
2017-06-25T12:00:29.138Z,16
2017-06-25T12:01:30.945Z,16
2017-06-25T12:02:32.394Z,22
2017-06-25T12:03:34.204Z,22
2017-06-25T12:04:36.342Z,28
2017-06-25T12:05:38.127Z,28
2017-06-25T12:06:39.940Z,28
2017-06-25T12:07:41.390Z,28
2017-06-25T12:08:42.860Z,28
2017-06-25T12:09:44.668Z,28
2017-06-25T12:10:46.471Z,22
2017-06-25T12:11:47.257Z,22
2017-06-25T12:12:48.373Z,22
2017-06-25T12:13:49.845Z,16
2017-06-25T12:14:51.301Z,16
2017-06-25T12:15:52.778Z,16
2017-06-25T12:16:54.919Z,16
2017-06-25T12:17:56.702Z,16
2017-06-25T12:18:58.512Z,16
2017-06-25T12:20:00.322Z,16
2017-06-25T12:21:02.106Z,16
2017-06-25T12:22:03.914Z,16
2017-06-25T12:23:06.059Z,16
2017-06-25T12:24:07.866Z,22
2017-06-25T12:25:09.680Z,16
2017-06-25T12:26:11.133Z,22
2017-06-25T12:27:12.936Z,22
2017-06-25T12:28:14.747Z,22
2017-06-25T12:29:16.196Z,16
2017-06-25T12:30:17.983Z,11
2017-06-25T12:31:19.453Z,16
2017-06-25T12:32:20.928Z,16
2017-06-25T12:33:22.723Z,16
2017-06-25T12:34:24.173Z,22
2017-06-25T12:35:25.980Z,28
2017-06-25T12:36:27.110Z,28
2017-06-25T12:37:28.918Z,22
2017-06-25T12:38:30.741Z,22
2017-06-25T12:39:32.523Z,16
2017-06-25T12:40:33.976Z,22
2017-06-25T12:41:36.115Z,16
2017-06-25T12:42:37.571Z,22
2017-06-25T12:43:39.023Z,16
2017-06-25T12:44:40.833Z,16
2017-06-25T12:45:42.972Z,22
2017-06-25T12:46:44.447Z,22
2017-06-25T12:47:45.922Z,22
2017-06-25T12:48:47.373Z,22
2017-06-25T12:49:49.177Z,22
2017-06-25T12:50:50.984Z,16
2017-06-25T12:51:53.144Z,16
2017-06-25T12:52:55.281Z,16
2017-06-25T12:53:57.069Z,16
2017-06-25T12:54:58.524Z,28
2017-06-25T12:56:00.334Z,22
2017-06-25T12:57:01.807Z,28
2017-06-25T12:58:03.595Z,22
2017-06-25T12:59:05.073Z,22
2017-06-25T13:00:06.551Z,22
2017-06-25T13:01:07.686Z,22
2017-06-25T13:02:09.837Z,22
2017-06-25T13:03:11.988Z,16
2017-06-25T13:04:14.126Z,16
2017-06-25T13:05:15.679Z,22
2017-06-25T13:06:17.821Z,16
2017-06-25T13:07:19.632Z,16
2017-06-25T13:08:21.417Z,16
2017-06-25T13:09:23.555Z,16
2017-06-25T13:10:25.032Z,16
2017-06-25T13:11:26.838Z,11
2017-06-25T13:12:28.978Z,11
2017-06-25T13:13:31.117Z,11
2017-06-25T13:14:32.235Z,11
2017-06-25T13:15:34.091Z,11
2017-06-25T13:16:35.541Z,11
2017-06-25T13:17:37.012Z,11
2017-06-25T13:18:39.152Z,11
2017-06-25T13:19:40.606Z,11
2017-06-25T13:20:42.746Z,16
2017-06-25T13:21:43.864Z,11
2017-06-25T13:22:45.648Z,11
2017-06-25T13:23:47.124Z,11
2017-06-25T13:24:48.908Z,11
2017-06-25T13:25:51.048Z,5
2017-06-25T13:26:53.186Z,5
2017-06-25T13:27:55.001Z,5
2017-06-25T13:28:56.453Z,5
2017-06-25T13:29:58.235Z,11
2017-06-25T13:31:00.431Z,16
2017-06-25T13:32:02.568Z,22
2017-06-25T13:33:04.709Z,22
2017-06-25T13:34:06.500Z,22
2017-06-25T13:35:08.311Z,22
2017-06-25T13:36:10.193Z,22
2017-06-25T13:37:12.337Z,22
2017-06-25T13:38:14.123Z,22
2017-06-25T13:39:15.933Z,22
2017-06-25T13:40:17.053Z,22
2017-06-25T13:41:18.509Z,16
2017-06-25T13:42:19.959Z,16
2017-06-25T13:43:22.103Z,11
2017-06-25T13:44:23.558Z,11
2017-06-25T13:45:25.363Z,11
2017-06-25T13:46:27.172Z,11
2017-06-25T13:47:28.980Z,11
2017-06-25T13:48:30.453Z,11
2017-06-25T13:49:32.599Z,11
2017-06-25T13:50:34.411Z,16
2017-06-25T13:51:35.885Z,16
2017-06-25T13:52:37.694Z,16
2017-06-25T13:53:39.166Z,22
2017-06-25T13:54:40.976Z,16
2017-06-25T13:55:43.124Z,16
2017-06-25T13:56:45.260Z,11
2017-06-25T13:57:46.734Z,11
2017-06-25T13:58:48.207Z,11
2017-06-25T13:59:50.020Z,11
2017-06-25T14:00:52.159Z,11
2017-06-25T14:01:54.305Z,11
2017-06-25T14:02:56.110Z,11
2017-06-25T14:03:58.257Z,11
2017-06-25T14:05:00.060Z,11
2017-06-25T14:06:01.869Z,11
2017-06-25T14:07:04.109Z,11
2017-06-25T14:08:06.252Z,11
2017-06-25T14:09:07.375Z,16
2017-06-25T14:10:09.184Z,16
2017-06-25T14:11:10.990Z,16
2017-06-25T14:12:12.439Z,22
2017-06-25T14:13:13.912Z,22
2017-06-25T14:14:15.383Z,22
2017-06-25T14:15:16.859Z,22
2017-06-25T14:16:18.331Z,16
2017-06-25T14:17:20.138Z,16
2017-06-25T14:18:21.611Z,16
2017-06-25T14:19:23.417Z,16
2017-06-25T14:20:25.241Z,22
2017-06-25T14:21:27.048Z,16
2017-06-25T14:22:28.856Z,16
2017-06-25T14:23:30.662Z,16
2017-06-25T14:24:32.800Z,16
2017-06-25T14:25:34.250Z,16
2017-06-25T14:26:36.036Z,11
2017-06-25T14:27:37.820Z,11
2017-06-25T14:28:39.959Z,11
2017-06-25T14:29:41.742Z,11
2017-06-25T14:30:43.192Z,5
2017-06-25T14:31:44.311Z,5
2017-06-25T14:32:46.449Z,5
2017-06-25T14:33:48.588Z,11
2017-06-25T14:34:50.395Z,11
2017-06-25T14:35:52.204Z,16
2017-06-25T14:36:53.988Z,16
2017-06-25T14:37:55.515Z,16
2017-06-25T14:38:56.966Z,16
2017-06-25T14:39:59.108Z,22
2017-06-25T14:41:01.250Z,22
2017-06-25T14:42:03.037Z,22
2017-06-25T14:43:05.176Z,22
2017-06-25T14:44:07.313Z,22
2017-06-25T14:45:09.455Z,16
2017-06-25T14:46:10.602Z,16
2017-06-25T14:47:12.418Z,16
2017-06-25T14:48:14.203Z,11
2017-06-25T14:49:16.346Z,11
2017-06-25T14:50:17.795Z,11
2017-06-25T14:51:19.268Z,16
2017-06-25T14:52:21.408Z,16
2017-06-25T14:53:23.216Z,11
2017-06-25T14:54:25.362Z,11
2017-06-25T14:55:27.172Z,11